Terminal Aerodrome Forecast
Issued by NWS Charleston, WV

Home | Current Version | Previous Version | Text Only | Print | Product List | Glossary On
Versions: 1 2 3 4 5 6 7 8 9 10 11 12 13 14 15 16 17 18 19 20 21 22 23 24 25 26 27 28 29 30
000
FTUS41 KRLX 220500
TAFBKW
TAF
KBKW 220536Z 2206/2306 VRB03KT P6SM BKN035
     FM220900 VRB03KT 4SM SHRA BR BKN020
      TEMPO 2209/2212 1SM TSRA BR BKN010 OVC030CB
     FM221400 29007KT 5SM BR BKN020
     FM221800 30007KT 5SM BR VCTS BKN025CB
     FM230100 VRB03KT 6SM BR BKN025=

USA.gov is the U.S. government's official web portal to all federal, state and local government web resources and services.